Time;durP1;ratioP1;P1;durP2;ratioP2;P2;SDS_P1;SDS_P2;PMS_P1;PMS_P2;Temp;Humidity;BMP_temperature;BMP_pressure;BME280_temperature;BME280_humidity;BME280_pressure;Samples;Min_cycle;Max_cycle;Signal;HPM_P1;HPM_P2
2023/02/19 00:02:24;;;;;;;4.90;3.20;;;10.00;99.90;;;;;;5051899;28;20025;-74
2023/02/19 00:04:49;;;;;;;4.22;2.65;;;10.00;99.90;;;;;;5051536;28;20492;-73
2023/02/19 00:07:15;;;;;;;2.97;2.65;;;10.00;99.90;;;;;;5050848;28;20033;-73
2023/02/19 00:09:40;;;;;;;3.30;2.53;;;10.00;99.90;;;;;;5051371;28;20481;-73
2023/02/19 00:12:06;;;;;;;3.92;2.50;;;10.00;99.90;;;;;;5052370;28;20025;-72
2023/02/19 00:14:32;;;;;;;5.47;2.50;;;10.00;99.90;;;;;;5053955;28;20033;-73
2023/02/19 00:16:57;;;;;;;3.65;2.70;;;10.00;99.90;;;;;;5067528;28;20253;-78
2023/02/19 00:19:23;;;;;;;4.55;2.75;;;10.00;99.90;;;;;;5071444;28;20035;-73
2023/02/19 00:21:52;;;;;;;4.05;2.40;;;9.90;99.90;;;;;;5071635;28;20036;-73
2023/02/19 00:24:21;;;;;;;4.25;2.85;;;9.90;99.90;;;;;;5059696;28;20032;-74
2023/02/19 00:26:47;;;;;;;5.15;2.83;;;9.90;99.90;;;;;;5062188;28;20409;-73
2023/02/19 00:29:16;;;;;;;3.95;2.50;;;9.90;99.90;;;;;;5070866;28;20022;-74
2023/02/19 00:31:41;;;;;;;3.65;2.90;;;9.90;99.90;;;;;;5053208;28;20025;-74
2023/02/19 00:34:09;;;;;;;5.38;2.50;;;9.90;99.90;;;;;;5051370;28;20078;-74
2023/02/19 00:36:36;;;;;;;3.80;2.55;;;9.90;99.90;;;;;;5065813;28;20128;-74
2023/02/19 00:39:04;;;;;;;4.97;2.65;;;9.90;99.90;;;;;;5071286;28;20024;-74
2023/02/19 00:41:29;;;;;;;3.25;2.50;;;9.90;99.90;;;;;;5072691;28;20107;-74
2023/02/19 00:44:01;;;;;;;3.72;2.50;;;9.90;99.90;;;;;;5065434;28;20120;-74
2023/02/19 00:46:28;;;;;;;2.55;2.05;;;9.90;99.90;;;;;;5052876;28;20032;-73
2023/02/19 00:48:55;;;;;;;3.10;2.10;;;9.90;99.90;;;;;;5051858;28;20040;-74
2023/02/19 00:51:23;;;;;;;3.42;2.17;;;9.90;99.90;;;;;;5051251;28;20021;-74
2023/02/19 00:53:49;;;;;;;3.50;2.20;;;9.90;99.90;;;;;;5051768;28;20032;-74
2023/02/19 00:56:15;;;;;;;5.13;2.55;;;9.90;99.90;;;;;;5051090;28;20025;-74
2023/02/19 00:58:40;;;;;;;3.30;2.22;;;10.00;99.90;;;;;;5065515;28;20021;-74
2023/02/19 01:01:06;;;;;;;2.92;2.25;;;10.00;99.90;;;;;;5070797;28;20035;-74
2023/02/19 01:03:35;;;;;;;3.00;2.10;;;10.00;99.90;;;;;;5068514;28;20053;-74
2023/02/19 01:06:02;;;;;;;3.40;2.38;;;10.00;99.90;;;;;;5052448;28;20029;-78
2023/02/19 01:08:32;;;;;;;2.35;1.98;;;10.00;99.90;;;;;;5063715;28;20150;-74
2023/02/19 01:10:58;;;;;;;4.13;2.25;;;10.00;99.90;;;;;;5054518;28;20478;-73
2023/02/19 01:13:24;;;;;;;2.83;2.25;;;10.00;99.90;;;;;;5050577;28;20108;-73
2023/02/19 01:15:49;;;;;;;2.78;2.00;;;10.10;99.90;;;;;;5051151;28;20183;-73
2023/02/19 01:18:15;;;;;;;2.70;1.80;;;10.00;99.90;;;;;;5050344;28;20029;-73
2023/02/19 01:20:42;;;;;;;2.78;2.17;;;10.00;99.90;;;;;;5052520;28;20031;-74
2023/02/19 01:23:10;;;;;;;2.10;1.77;;;10.00;99.90;;;;;;5053848;28;20119;-74
2023/02/19 01:25:40;;;;;;;3.15;1.60;;;10.00;99.90;;;;;;5050799;28;20021;-73
2023/02/19 01:28:07;;;;;;;2.28;1.70;;;10.00;99.90;;;;;;5050539;28;20052;-74
2023/02/19 01:30:37;;;;;;;2.03;1.55;;;10.00;99.90;;;;;;5068276;28;20090;-74
2023/02/19 01:33:04;;;;;;;1.95;1.60;;;10.00;99.90;;;;;;5050800;28;20025;-75
2023/02/19 01:35:29;;;;;;;2.50;1.50;;;10.00;99.90;;;;;;5051078;28;20045;-74
2023/02/19 01:37:55;;;;;;;2.72;2.00;;;10.00;99.90;;;;;;5052323;28;20485;-74
2023/02/19 01:40:20;;;;;;;2.42;1.45;;;10.00;99.90;;;;;;5050059;28;20033;-74
2023/02/19 01:42:46;;;;;;;1.92;1.30;;;10.00;99.90;;;;;;5052280;28;20471;-74
2023/02/19 01:45:21;;;;;;;1.55;1.45;;;10.00;99.90;;;;;;5050848;28;20029;-74
2023/02/19 01:47:51;;;;;;;1.58;1.48;;;10.00;99.90;;;;;;5051010;28;20033;-74
2023/02/19 01:50:17;;;;;;;1.63;1.30;;;10.00;99.90;;;;;;5051835;28;20048;-74
2023/02/19 01:52:42;;;;;;;1.77;1.60;;;10.00;99.90;;;;;;5051097;28;20029;-74
2023/02/19 01:55:12;;;;;;;2.17;1.55;;;10.00;99.90;;;;;;5051875;28;20107;-74
2023/02/19 01:57:43;;;;;;;1.85;1.52;;;10.00;99.90;;;;;;5051205;28;20469;-74
2023/02/19 02:00:13;;;;;;;2.05;1.50;;;9.90;99.90;;;;;;5051862;28;20099;-75
2023/02/19 02:02:41;;;;;;;1.83;1.40;;;9.90;99.90;;;;;;5051064;28;20119;-74
2023/02/19 02:05:10;;;;;;;1.90;1.30;;;9.90;99.90;;;;;;5051863;28;20458;-75
2023/02/19 02:10:20;;;;;;;1.90;1.20;;;9.90;99.90;;;;;;5051661;28;20036;-74
2023/02/19 02:12:50;;;;;;;1.65;1.55;;;9.90;99.90;;;;;;5051448;28;20025;-74
2023/02/19 02:15:17;;;;;;;1.42;1.00;;;9.90;99.90;;;;;;5055634;28;20059;-74
2023/02/19 02:17:52;;;;;;;2.92;1.40;;;9.90;99.90;;;;;;5054653;28;20025;-74
2023/02/19 02:20:18;;;;;;;1.33;1.20;;;9.90;99.90;;;;;;5054332;28;20048;-74
2023/02/19 02:23:06;;;;;;;1.83;1.30;;;9.90;99.90;;;;;;5054609;28;20036;-74
2023/02/19 02:26:08;;;;;;;1.40;1.30;;;9.90;99.90;;;;;;5056348;28;20021;-74
2023/02/19 02:29:08;;;;;;;1.58;1.17;;;9.90;99.90;;;;;;5054609;28;20566;-74
2023/02/19 02:32:24;;;;;;;2.53;1.10;;;9.90;99.90;;;;;;5056139;28;20029;-74
2023/02/19 02:34:58;;;;;;;2.28;1.33;;;9.90;99.90;;;;;;5051640;28;20033;-74
2023/02/19 02:37:25;;;;;;;1.58;1.10;;;9.80;99.90;;;;;;5053807;28;20037;-74
2023/02/19 02:39:52;;;;;;;1.42;1.27;;;9.80;99.90;;;;;;5054066;28;20029;-74
2023/02/19 02:42:27;;;;;;;1.67;1.20;;;9.80;99.90;;;;;;5054478;28;20489;-74
2023/02/19 02:47:45;;;;;;;2.13;1.30;;;9.80;99.90;;;;;;5055201;28;20501;-74
2023/02/19 02:50:18;;;;;;;1.38;1.13;;;9.80;99.90;;;;;;5054842;28;20043;-74
2023/02/19 02:55:37;;;;;;;1.77;1.20;;;9.70;99.90;;;;;;5055329;28;20075;-74
2023/02/19 02:58:04;;;;;;;1.50;1.00;;;9.70;99.90;;;;;;5054102;28;20025;-75
2023/02/19 03:02:09;;;;;;;1.73;1.13;;;9.70;99.90;;;;;;5053386;28;20073;-74
2023/02/19 03:03:20;;;;;;;2.10;1.30;;;9.60;99.90;;;;;;5054334;28;20112;-75
2023/02/19 03:05:51;;;;;;;1.38;1.10;;;9.60;99.90;;;;;;5055165;28;20063;-74
2023/02/19 03:08:36;;;;;;;1.45;1.20;;;9.70;99.90;;;;;;5053404;28;20055;-74
2023/02/19 03:19:36;;;;;;;1.05;0.95;;;9.60;99.90;;;;;;5054600;28;20044;-74
2023/02/19 03:22:22;;;;;;;2.45;1.08;;;9.60;99.90;;;;;;5053066;28;20120;-74
2023/02/19 03:27:48;;;;;;;2.15;0.90;;;9.60;99.90;;;;;;5054432;28;20048;-74
2023/02/19 03:30:20;;;;;;;2.35;0.90;;;9.60;99.90;;;;;;5053877;28;20025;-74
2023/02/19 03:32:54;;;;;;;;;;;9.60;99.90;;;;;;5053936;28;20121;-74
2023/02/19 03:35:27;;;;;;;0.93;0.82;;;9.60;99.90;;;;;;5053372;28;19917;-74
2023/02/19 03:38:12;;;;;;;1.20;0.90;;;9.60;99.90;;;;;;5054151;28;20096;-74
2023/02/19 03:40:51;;;;;;;1.10;1.00;;;9.60;99.90;;;;;;5053004;28;20026;-75
2023/02/19 03:43:37;;;;;;;1.02;0.90;;;9.60;99.90;;;;;;5053467;28;20025;-75
2023/02/19 03:46:32;;;;;;;1.48;0.95;;;9.60;99.90;;;;;;5053043;28;20029;-74
2023/02/19 03:49:07;;;;;;;2.08;0.88;;;9.60;99.90;;;;;;5034274;28;20597;-75
2023/02/19 03:51:42;;;;;;;3.30;1.10;;;9.60;99.90;;;;;;5052252;28;20063;-72
2023/02/19 03:54:37;;;;;;;0.85;0.85;;;9.60;99.90;;;;;;5052605;28;20492;-76
2023/02/19 03:57:13;;;;;;;1.15;0.85;;;9.60;99.90;;;;;;5044849;28;20037;-73
2023/02/19 04:00:02;;;;;;;1.10;0.90;;;9.60;99.90;;;;;;5054114;28;20025;-73
2023/02/19 04:02:30;;;;;;;2.47;1.05;;;9.50;99.90;;;;;;5052545;28;20179;-73
2023/02/19 04:05:10;;;;;;;1.95;0.90;;;9.50;99.90;;;;;;5054061;28;20028;-72
2023/02/19 04:07:41;;;;;;;0.80;0.80;;;9.60;99.90;;;;;;5052593;28;20036;-73
2023/02/19 04:10:08;;;;;;;1.40;0.90;;;9.50;99.90;;;;;;5053808;28;20060;-72
2023/02/19 04:12:38;;;;;;;1.55;0.90;;;9.50;99.90;;;;;;5053325;28;20278;-73
2023/02/19 04:15:11;;;;;;;1.40;0.90;;;9.50;99.90;;;;;;5052645;28;20028;-73
2023/02/19 04:17:44;;;;;;;1.45;0.95;;;9.50;99.90;;;;;;5052269;28;20079;-73
2023/02/19 04:20:12;;;;;;;0.90;0.80;;;9.50;99.90;;;;;;5052831;28;20025;-76
2023/02/19 04:22:38;;;;;;;1.10;0.98;;;9.50;99.90;;;;;;5052769;28;20025;-74
2023/02/19 04:25:05;;;;;;;1.30;0.70;;;9.40;99.90;;;;;;5052540;28;20115;-73
2023/02/19 04:27:31;;;;;;;1.38;1.00;;;9.40;99.90;;;;;;5053148;28;20025;-72
2023/02/19 04:29:57;;;;;;;1.00;0.80;;;9.40;99.90;;;;;;5052608;28;20120;-73
2023/02/19 04:32:22;;;;;;;0.90;0.80;;;9.40;99.90;;;;;;5051830;28;20116;-74
2023/02/19 04:34:48;;;;;;;2.78;0.77;;;9.40;99.90;;;;;;5052272;28;20536;-73
2023/02/19 04:37:13;;;;;;;2.85;0.90;;;9.40;99.90;;;;;;5050761;28;20083;-75
2023/02/19 04:39:39;;;;;;;2.15;1.00;;;9.50;99.90;;;;;;5053314;28;20062;-73
2023/02/19 04:42:05;;;;;;;2.63;0.82;;;9.50;99.90;;;;;;5053854;28;20060;-73
2023/02/19 04:44:31;;;;;;;0.88;0.70;;;9.50;99.90;;;;;;5052666;28;20041;-73
2023/02/19 04:46:57;;;;;;;2.25;0.65;;;9.50;99.90;;;;;;5052567;28;20033;-74
2023/02/19 04:49:23;;;;;;;1.35;0.70;;;9.50;99.90;;;;;;5051301;28;20057;-75
2023/02/19 04:51:48;;;;;;;0.68;0.60;;;9.50;99.90;;;;;;5052050;28;20044;-75
2023/02/19 04:54:14;;;;;;;0.85;0.70;;;9.50;99.90;;;;;;5051617;28;20102;-80
2023/02/19 04:56:39;;;;;;;0.60;0.60;;;9.50;99.90;;;;;;5053239;28;20017;-75
2023/02/19 04:59:05;;;;;;;1.05;0.82;;;9.50;99.90;;;;;;5052949;28;20028;-75
2023/02/19 05:01:31;;;;;;;2.20;0.85;;;9.50;99.90;;;;;;5051327;28;20032;-75
2023/02/19 05:03:56;;;;;;;1.25;0.65;;;9.50;99.90;;;;;;5051713;28;20147;-74
2023/02/19 05:06:22;;;;;;;0.80;0.70;;;9.50;99.90;;;;;;5051110;28;20029;-75
2023/02/19 05:08:48;;;;;;;1.42;0.88;;;9.50;99.90;;;;;;5051426;28;20052;-75
2023/02/19 05:11:13;;;;;;;1.20;0.60;;;9.40;99.90;;;;;;5051106;28;20025;-79
2023/02/19 05:13:39;;;;;;;1.52;0.90;;;9.40;99.90;;;;;;5050985;28;20466;-75
2023/02/19 05:16:09;;;;;;;0.77;0.60;;;9.30;99.90;;;;;;5051086;28;20036;-74
2023/02/19 05:18:34;;;;;;;0.82;0.70;;;9.30;99.90;;;;;;5050589;28;20029;-75
2023/02/19 05:21:01;;;;;;;1.50;0.82;;;9.30;99.90;;;;;;5051243;28;20029;-74
2023/02/19 05:23:27;;;;;;;1.38;0.70;;;9.30;99.90;;;;;;5050581;28;20040;-75
2023/02/19 05:25:53;;;;;;;1.30;0.63;;;9.30;99.90;;;;;;5051360;28;20077;-75
2023/02/19 05:28:19;;;;;;;0.60;0.60;;;9.20;99.90;;;;;;5051839;28;20446;-76
2023/02/19 05:30:50;;;;;;;0.95;0.60;;;9.20;99.90;;;;;;5051222;28;20471;-75
2023/02/19 05:33:18;;;;;;;0.82;0.70;;;9.20;99.90;;;;;;5050799;28;20033;-78
2023/02/19 05:35:46;;;;;;;0.80;0.80;;;9.20;99.90;;;;;;5051101;28;20064;-74
2023/02/19 05:38:12;;;;;;;0.80;0.68;;;9.20;99.90;;;;;;5052477;28;20103;-74
2023/02/19 05:40:38;;;;;;;1.27;0.90;;;9.20;99.90;;;;;;5051691;28;20060;-74
2023/02/19 05:43:04;;;;;;;1.40;0.90;;;9.20;99.90;;;;;;5051101;28;20025;-74
2023/02/19 05:53:22;;;;;;;2.13;0.70;;;9.20;99.90;;;;;;5385777;23;20520;-78
2023/02/19 05:55:48;;;;;;;0.80;0.80;;;9.20;99.90;;;;;;4979121;28;20046;-77
2023/02/19 05:58:13;;;;;;;0.70;0.70;;;9.20;99.90;;;;;;4998289;28;20023;-79
2023/02/19 06:00:39;;;;;;;1.17;0.73;;;9.20;99.90;;;;;;4980581;28;20467;-77
2023/02/19 06:03:04;;;;;;;1.67;0.63;;;9.20;99.90;;;;;;4998127;28;20173;-77
2023/02/19 06:05:30;;;;;;;1.48;0.60;;;9.20;99.90;;;;;;4980182;28;20034;-77
2023/02/19 06:07:55;;;;;;;0.75;0.55;;;9.20;99.90;;;;;;4997722;28;20097;-78
2023/02/19 06:10:21;;;;;;;1.77;0.73;;;9.20;99.90;;;;;;4997135;28;20038;-79
2023/02/19 06:12:46;;;;;;;0.60;0.52;;;9.20;99.90;;;;;;4997527;28;20077;-76
2023/02/19 06:15:12;;;;;;;2.40;0.70;;;9.20;99.90;;;;;;4979361;28;20048;-76
2023/02/19 06:17:38;;;;;;;1.45;0.65;;;9.20;99.90;;;;;;4979223;28;20034;-76
2023/02/19 06:20:04;;;;;;;2.92;0.80;;;9.20;99.90;;;;;;4979829;28;20028;-76
2023/02/19 06:22:29;;;;;;;1.83;0.68;;;9.20;99.90;;;;;;4996550;28;20054;-76
2023/02/19 06:24:55;;;;;;;1.00;0.70;;;9.20;99.90;;;;;;4997504;28;20026;-77
2023/02/19 06:27:20;;;;;;;0.95;0.63;;;9.30;99.90;;;;;;4979725;28;20113;-77
2023/02/19 06:29:46;;;;;;;1.40;0.80;;;9.20;99.90;;;;;;4980016;28;20023;-77
2023/02/19 06:32:12;;;;;;;2.78;1.30;;;9.20;99.90;;;;;;4979892;28;20034;-76
2023/02/19 06:34:37;;;;;;;1.20;0.85;;;9.30;99.90;;;;;;4979622;28;20080;-76
2023/02/19 06:37:03;;;;;;;2.80;1.10;;;9.30;99.90;;;;;;4980026;28;20121;-77
2023/02/19 06:39:28;;;;;;;3.38;1.10;;;9.30;99.90;;;;;;4979386;28;20027;-77
2023/02/19 06:41:56;;;;;;;2.80;1.10;;;9.30;99.90;;;;;;4979458;28;20430;-77
2023/02/19 06:44:22;;;;;;;2.13;1.00;;;9.30;99.90;;;;;;4979250;28;20042;-77
2023/02/19 06:46:48;;;;;;;1.05;0.80;;;9.30;99.90;;;;;;4979277;28;20026;-76
2023/02/19 06:49:14;;;;;;;2.38;0.85;;;9.30;99.90;;;;;;4979377;28;20027;-77
2023/02/19 06:51:40;;;;;;;1.00;0.55;;;9.30;99.90;;;;;;4979057;28;20031;-76
2023/02/19 06:54:06;;;;;;;1.70;0.68;;;9.30;99.90;;;;;;4972529;28;20564;-76
2023/02/19 06:56:32;;;;;;;1.00;0.60;;;9.30;99.90;;;;;;4959502;28;20114;-77
2023/02/19 06:59:00;;;;;;;1.75;0.70;;;9.30;99.90;;;;;;4959586;28;20121;-77
2023/02/19 07:01:30;;;;;;;1.17;0.90;;;9.30;99.90;;;;;;4958675;28;20035;-77
2023/02/19 07:03:55;;;;;;;0.60;0.52;;;9.30;99.90;;;;;;4960080;28;20062;-77
2023/02/19 07:06:22;;;;;;;0.60;0.60;;;9.30;99.90;;;;;;4959122;28;20069;-77
2023/02/19 07:08:49;;;;;;;1.00;0.80;;;9.40;99.90;;;;;;4959816;28;20482;-77
2023/02/19 07:11:14;;;;;;;1.35;0.80;;;9.40;99.90;;;;;;4959652;28;20035;-77
2023/02/19 07:13:40;;;;;;;0.52;0.52;;;9.40;99.90;;;;;;4976617;28;20186;-76
2023/02/19 07:16:08;;;;;;;0.68;0.50;;;9.40;99.90;;;;;;4960061;28;20031;-76
2023/02/19 07:18:34;;;;;;;0.77;0.57;;;9.40;99.90;;;;;;4958742;28;20057;-77
2023/02/19 07:21:04;;;;;;;0.45;0.40;;;9.50;99.90;;;;;;4959045;28;20027;-76
2023/02/19 07:23:30;;;;;;;1.40;0.70;;;9.40;99.90;;;;;;4958831;28;20121;-77
2023/02/19 07:25:56;;;;;;;1.23;0.60;;;9.50;99.90;;;;;;4959155;28;20450;-76
2023/02/19 07:28:21;;;;;;;0.93;0.70;;;9.50;99.90;;;;;;4959095;28;20089;-78
2023/02/19 07:30:47;;;;;;;3.17;0.80;;;9.50;99.90;;;;;;4959366;28;20469;-77
2023/02/19 07:33:12;;;;;;;1.30;0.90;;;9.50;99.90;;;;;;4959147;28;20023;-76
2023/02/19 07:35:44;;;;;;;0.80;0.70;;;9.50;99.90;;;;;;4958680;28;20030;-76
2023/02/19 07:38:10;;;;;;;1.35;0.90;;;9.50;99.90;;;;;;4958732;28;20037;-76
2023/02/19 07:40:36;;;;;;;1.17;1.00;;;9.50;99.90;;;;;;4975220;28;20110;-77
2023/02/19 07:43:02;;;;;;;1.42;1.10;;;9.60;99.90;;;;;;4958892;28;20035;-77
2023/02/19 07:45:27;;;;;;;1.60;1.10;;;9.60;99.90;;;;;;4958504;28;20081;-76
2023/02/19 07:47:53;;;;;;;1.83;1.20;;;9.70;99.90;;;;;;4958958;28;20550;-77
2023/02/19 07:50:18;;;;;;;3.05;1.05;;;9.60;99.90;;;;;;4976099;28;20035;-76
2023/02/19 07:52:44;;;;;;;1.50;0.82;;;9.70;99.90;;;;;;4957982;28;20418;-77
2023/02/19 07:55:10;;;;;;;1.55;1.10;;;9.70;99.90;;;;;;4991095;28;20042;-76
2023/02/19 07:57:35;;;;;;;1.17;0.88;;;9.70;99.90;;;;;;4994972;28;20022;-77
2023/02/19 08:00:01;;;;;;;2.08;1.20;;;9.70;99.90;;;;;;4975501;28;20147;-79
2023/02/19 08:05:12;;;;;;;1.45;1.20;;;9.80;99.90;;;;;;4995826;28;20121;-76
2023/02/19 08:07:38;;;;;;;1.85;1.20;;;9.70;99.90;;;;;;4971103;28;20465;-77
2023/02/19 08:15:40;;;;;;;1.50;1.10;;;9.80;99.90;;;;;;4993735;28;20639;-77
2023/02/19 08:18:07;;;;;;;2.22;1.30;;;9.80;99.90;;;;;;4989288;28;20043;-77
2023/02/19 08:20:33;;;;;;;1.77;1.30;;;9.80;99.90;;;;;;4982781;28;20041;-77
2023/02/19 08:22:58;;;;;;;3.22;1.80;;;9.80;99.90;;;;;;4970869;28;20039;-77
2023/02/19 08:25:24;;;;;;;1.58;1.33;;;9.90;99.90;;;;;;4973289;28;20022;-78
2023/02/19 08:27:50;;;;;;;1.60;1.25;;;9.90;99.90;;;;;;4978576;28;20027;-77
2023/02/19 08:30:16;;;;;;;2.80;1.20;;;9.90;99.90;;;;;;4993041;28;20037;-75
2023/02/19 08:32:41;;;;;;;3.38;1.23;;;9.90;99.90;;;;;;4963816;28;20594;-76
2023/02/19 08:35:07;;;;;;;4.38;1.27;;;10.00;99.90;;;;;;4973265;28;20023;-78
2023/02/19 08:37:32;;;;;;;2.25;1.10;;;10.00;99.90;;;;;;4993338;28;20026;-77
2023/02/19 08:39:58;;;;;;;5.65;1.30;;;10.00;99.90;;;;;;4976643;28;20034;-77
2023/02/19 08:42:24;;;;;;;1.50;1.17;;;10.00;99.90;;;;;;4965418;28;20038;-79
2023/02/19 08:44:49;;;;;;;2.35;1.40;;;10.00;99.90;;;;;;4968106;28;20038;-77
2023/02/19 08:47:15;;;;;;;1.83;1.20;;;10.10;99.90;;;;;;4972203;28;20061;-78
2023/02/19 08:49:40;;;;;;;1.70;1.23;;;10.10;99.90;;;;;;4990764;28;20463;-77
2023/02/19 08:52:06;;;;;;;1.98;1.50;;;10.10;99.90;;;;;;4968967;28;20038;-78
2023/02/19 08:54:31;;;;;;;3.78;1.77;;;10.20;99.90;;;;;;4985888;28;20098;-78
2023/02/19 08:56:57;;;;;;;3.60;2.22;;;10.20;99.90;;;;;;4988991;28;20035;-78
2023/02/19 08:59:23;;;;;;;4.82;2.00;;;10.20;99.90;;;;;;4971181;28;20456;-80
2023/02/19 09:01:48;;;;;;;3.28;1.77;;;10.20;99.90;;;;;;4970561;28;20431;-78
2023/02/19 09:04:14;;;;;;;3.35;2.10;;;10.30;99.90;;;;;;4971941;28;20031;-79
2023/02/19 09:06:40;;;;;;;4.40;2.50;;;10.30;99.90;;;;;;4961895;28;20102;-78
2023/02/19 09:09:05;;;;;;;5.75;2.47;;;10.30;99.90;;;;;;4986231;28;20054;-78
2023/02/19 09:11:31;;;;;;;7.90;2.65;;;10.40;99.90;;;;;;4986139;28;20030;-78
2023/02/19 09:13:56;;;;;;;2.45;1.60;;;10.40;99.90;;;;;;4986394;28;20031;-77
2023/02/19 09:16:22;;;;;;;2.85;1.45;;;10.40;99.90;;;;;;4988953;28;20026;-78
2023/02/19 09:18:48;;;;;;;4.70;1.90;;;10.40;99.90;;;;;;4976163;28;20023;-77
2023/02/19 09:21:13;;;;;;;3.38;1.58;;;10.50;99.90;;;;;;4993777;28;20062;-77
2023/02/19 09:23:39;;;;;;;2.25;1.50;;;10.40;99.90;;;;;;4993378;28;20038;-77
2023/02/19 09:26:08;;;;;;;1.92;1.50;;;10.40;99.90;;;;;;4971611;28;20077;-78
2023/02/19 09:28:34;;;;;;;2.13;1.20;;;10.40;99.90;;;;;;4976302;28;20049;-77
2023/02/19 09:31:09;;;;;;;2.35;1.60;;;10.50;99.90;;;;;;4974533;28;20463;-76
2023/02/19 09:33:35;;;;;;;2.53;1.60;;;10.50;99.90;;;;;;4975781;28;20030;-77
2023/02/19 09:36:01;;;;;;;3.90;1.60;;;10.50;99.90;;;;;;4993012;28;20034;-77
2023/02/19 09:38:29;;;;;;;2.20;1.48;;;10.50;99.90;;;;;;4975438;28;20141;-77
2023/02/19 09:40:56;;;;;;;3.28;1.60;;;10.50;99.90;;;;;;4988657;28;20035;-78
2023/02/19 09:43:24;;;;;;;2.88;1.67;;;10.50;99.90;;;;;;4989557;28;20153;-79
2023/02/19 09:46:02;;;;;;;3.70;1.58;;;10.50;99.90;;;;;;4971533;28;20034;-77
2023/02/19 09:48:28;;;;;;;1.83;1.33;;;10.50;99.90;;;;;;4964840;28;20030;-80
2023/02/19 09:50:55;;;;;;;3.03;1.50;;;10.60;99.90;;;;;;4960066;28;20050;-76
2023/02/19 09:53:25;;;;;;;3.60;1.65;;;10.70;99.90;;;;;;4961855;28;20035;-78
2023/02/19 09:55:52;;;;;;;2.90;1.55;;;10.70;99.90;;;;;;4990074;28;20035;-79
2023/02/19 09:58:32;;;;;;;2.15;1.38;;;10.60;99.90;;;;;;4962608;28;20038;-79
2023/02/19 10:01:00;;;;;;;1.77;1.40;;;10.60;99.90;;;;;;4985123;28;20101;-79
2023/02/19 10:03:33;;;;;;;3.78;1.60;;;10.60;99.90;;;;;;4972135;28;20023;-78
2023/02/19 10:06:03;;;;;;;2.97;1.55;;;10.60;99.90;;;;;;4981408;28;20026;-78
2023/02/19 10:08:31;;;;;;;4.40;1.40;;;10.70;99.90;;;;;;4990129;28;20022;-79
2023/02/19 10:10:58;;;;;;;7.97;1.70;;;10.70;99.90;;;;;;4973152;28;20085;-80
2023/02/19 10:13:35;;;;;;;4.07;1.50;;;10.70;99.90;;;;;;4977276;28;20027;-78
2023/02/19 10:16:05;;;;;;;4.05;1.30;;;10.70;99.90;;;;;;4970174;28;20023;-77
2023/02/19 10:18:41;;;;;;;5.07;1.90;;;10.70;99.90;;;;;;4965073;28;20414;-79
2023/02/19 10:21:09;;;;;;;3.13;1.40;;;10.70;99.90;;;;;;4961927;28;20031;-79
2023/02/19 10:23:35;;;;;;;2.42;1.35;;;10.70;99.90;;;;;;4980363;28;20035;-79
2023/02/19 10:26:00;;;;;;;3.95;1.50;;;10.80;99.90;;;;;;4985217;28;20073;-78
2023/02/19 10:28:29;;;;;;;2.72;1.58;;;10.90;99.90;;;;;;4974284;28;20555;-81
2023/02/19 10:31:04;;;;;;;4.82;2.08;;;11.00;99.90;;;;;;4965715;28;20117;-79
2023/02/19 10:33:30;;;;;;;2.67;1.60;;;11.00;99.90;;;;;;4967018;28;20376;-77
2023/02/19 10:36:02;;;;;;;5.25;1.63;;;11.00;99.90;;;;;;4992333;28;20038;-79
2023/02/19 10:38:32;;;;;;;4.07;1.00;;;11.00;99.90;;;;;;4979349;28;20022;-80
2023/02/19 10:41:13;;;;;;;4.38;1.65;;;11.00;99.90;;;;;;4969042;28;20038;-79
2023/02/19 10:43:42;;;;;;;3.20;1.42;;;11.00;99.90;;;;;;4979067;28;20033;-79
2023/02/19 10:46:20;;;;;;;3.38;1.40;;;11.10;99.90;;;;;;4996801;28;20030;-79
2023/02/19 10:49:12;;;;;;;3.95;1.50;;;11.10;99.90;;;;;;4996306;28;20015;-79
2023/02/19 10:51:39;;;;;;;4.72;1.52;;;11.10;99.90;;;;;;4970168;28;20045;-80
2023/02/19 10:54:16;;;;;;;2.70;1.58;;;11.20;99.90;;;;;;4981635;28;20428;-79
2023/02/19 10:56:41;;;;;;;2.47;1.50;;;11.30;99.90;;;;;;4971238;28;20084;-78
2023/02/19 10:59:26;;;;;;;2.50;1.25;;;11.30;99.90;;;;;;4994513;28;20034;-80
2023/02/19 11:02:14;;;;;;;2.40;1.23;;;11.40;99.90;;;;;;4993525;28;20038;-79
2023/02/19 11:04:40;;;;;;;3.92;1.60;;;11.50;99.90;;;;;;4995017;28;20058;-79
2023/02/19 11:07:09;;;;;;;3.75;1.50;;;11.60;99.90;;;;;;4977779;28;20122;-79
2023/02/19 11:09:41;;;;;;;1.65;1.10;;;11.70;99.90;;;;;;4994462;28;20084;-78
2023/02/19 11:12:08;;;;;;;3.45;1.52;;;11.80;99.90;;;;;;4968319;28;20030;-79
2023/02/19 11:14:34;;;;;;;2.95;1.50;;;11.80;99.90;;;;;;4991184;28;20109;-77
2023/02/19 11:17:04;;;;;;;4.07;1.40;;;11.80;99.90;;;;;;4974180;28;20026;-78
2023/02/19 11:19:38;;;;;;;4.38;1.50;;;11.90;99.90;;;;;;4994647;28;20429;-78
2023/02/19 11:22:38;;;;;;;2.40;1.35;;;11.90;99.90;;;;;;4968571;28;20403;-79
2023/02/19 11:25:19;;;;;;;6.35;1.60;;;11.90;99.90;;;;;;4908282;28;20066;-78
2023/02/19 11:28:27;;;;;;;4.47;1.70;;;11.90;99.90;;;;;;4967758;28;20033;-78
2023/02/19 11:30:52;;;;;;;3.47;1.48;;;12.10;99.90;;;;;;4941776;28;20137;-80
2023/02/19 11:33:22;;;;;;;2.60;1.30;;;12.10;99.90;;;;;;4993361;28;20082;-80
2023/02/19 11:35:51;;;;;;;2.83;1.27;;;12.10;99.90;;;;;;4976556;28;20200;-81
2023/02/19 11:38:18;;;;;;;3.83;1.50;;;12.10;99.90;;;;;;4976440;28;20069;-77
2023/02/19 11:41:12;;;;;;;2.15;1.52;;;12.10;99.90;;;;;;4971372;28;20213;-79
2023/02/19 11:44:04;;;;;;;4.20;1.63;;;12.00;99.90;;;;;;4984028;28;20031;-78
2023/02/19 11:46:47;;;;;;;4.18;1.45;;;12.00;99.90;;;;;;4981754;28;20031;-77
2023/02/19 11:49:43;;;;;;;3.60;1.30;;;12.00;99.90;;;;;;4974504;28;20038;-78
2023/02/19 11:52:17;;;;;;;2.97;2.05;;;12.00;99.90;;;;;;4970807;28;20084;-77
2023/02/19 11:54:49;;;;;;;1.65;1.35;;;12.10;99.90;;;;;;4997170;28;20130;-77
2023/02/19 11:57:21;;;;;;;;;;;12.10;99.90;;;;;;4983419;28;20030;-78
2023/02/19 12:00:17;;;;;;;3.90;1.88;;;12.10;99.90;;;;;;4989776;28;19917;-79
2023/02/19 12:03:10;;;;;;;3.63;1.70;;;12.10;99.90;;;;;;4969954;28;20487;-80
2023/02/19 12:06:10;;;;;;;3.30;1.50;;;12.10;99.90;;;;;;4970376;28;20055;-80
2023/02/19 12:08:48;;;;;;;2.88;1.45;;;12.10;99.90;;;;;;4978000;28;20031;-81
2023/02/19 12:11:21;;;;;;;2.92;1.60;;;12.10;99.90;;;;;;4974236;28;20069;-79
2023/02/19 12:14:04;;;;;;;2.13;1.30;;;12.10;99.90;;;;;;4971509;28;20440;-77
2023/02/19 12:16:52;;;;;;;3.03;1.58;;;12.00;99.90;;;;;;4987434;28;20026;-79
2023/02/19 12:19:41;;;;;;;4.57;1.73;;;12.10;99.90;;;;;;4976191;28;20034;-79
2023/02/19 12:22:19;;;;;;;5.00;1.75;;;11.90;99.90;;;;;;4989693;28;20026;-81
2023/02/19 12:25:22;;;;;;;6.47;1.70;;;11.90;99.90;;;;;;4969515;28;20125;-77
2023/02/19 12:28:08;;;;;;;3.58;1.63;;;11.80;99.90;;;;;;4962698;28;20073;-78
2023/02/19 12:31:10;;;;;;;3.85;1.60;;;11.70;99.90;;;;;;4981352;28;20038;-77
2023/02/19 12:34:01;;;;;;;2.45;1.73;;;11.70;99.90;;;;;;4963219;28;20030;-78
2023/02/19 12:36:58;;;;;;;2.28;1.20;;;11.60;99.90;;;;;;4970267;28;20023;-83
2023/02/19 12:39:51;;;;;;;4.72;1.63;;;11.70;99.90;;;;;;4977757;28;20054;-78
2023/02/19 12:42:41;;;;;;;4.15;1.73;;;11.70;99.90;;;;;;4964990;28;20462;-76
2023/02/19 12:45:32;;;;;;;3.35;1.60;;;11.80;99.90;;;;;;4967567;28;20030;-80
2023/02/19 12:48:29;;;;;;;6.65;1.70;;;11.90;99.90;;;;;;4956374;28;20046;-78
2023/02/19 12:51:22;;;;;;;5.15;1.65;;;11.90;99.90;;;;;;4976491;28;20120;-76
2023/02/19 12:54:03;;;;;;;5.07;1.40;;;11.90;99.90;;;;;;4984528;28;20053;-77
2023/02/19 12:57:09;;;;;;;3.47;1.40;;;11.90;99.90;;;;;;4973019;28;20121;-78
2023/02/19 13:00:01;;;;;;;3.22;1.58;;;12.00;99.90;;;;;;4972827;28;20479;-79
2023/02/19 13:02:54;;;;;;;4.60;1.60;;;12.00;99.90;;;;;;4971647;28;20221;-79
2023/02/19 13:05:27;;;;;;;2.20;1.30;;;12.10;99.90;;;;;;4973720;28;20042;-77
2023/02/19 13:07:58;;;;;;;2.63;1.52;;;12.10;99.90;;;;;;4985304;28;20150;-80
2023/02/19 13:10:40;;;;;;;6.73;1.30;;;12.20;99.90;;;;;;4992436;28;20053;-79
2023/02/19 13:13:20;;;;;;;4.50;1.52;;;12.30;99.90;;;;;;4985632;28;20068;-79
2023/02/19 13:15:50;;;;;;;4.22;1.50;;;12.80;99.90;;;;;;4970041;28;20058;-78
2023/02/19 13:18:24;;;;;;;4.35;1.45;;;12.90;99.90;;;;;;4979280;28;20022;-79
2023/02/19 13:20:53;;;;;;;3.63;1.38;;;13.00;99.90;;;;;;4969088;28;20066;-80
2023/02/19 13:26:25;;;;;;;1.55;1.17;;;12.90;99.90;;;;;;4986814;28;20046;-79
2023/02/19 13:29:27;;;;;;;2.88;1.20;;;12.90;99.90;;;;;;4983395;28;20031;-78
2023/02/19 13:32:15;;;;;;;;;;;12.70;99.90;;;;;;4991030;28;20041;-79
2023/02/19 13:34:46;;;;;;;4.45;1.17;;;12.70;99.90;;;;;;4986329;28;19916;-80
2023/02/19 13:37:13;;;;;;;2.70;1.08;;;12.50;99.90;;;;;;4989682;28;20031;-79
2023/02/19 13:39:48;;;;;;;5.32;1.00;;;12.50;99.90;;;;;;4990315;28;20039;-79
2023/02/19 13:42:26;;;;;;;1.90;0.93;;;12.50;99.90;;;;;;4981308;28;20046;-77
2023/02/19 13:44:54;;;;;;;5.10;1.40;;;12.50;99.90;;;;;;4983709;28;20035;-78
2023/02/19 13:47:54;;;;;;;2.85;1.10;;;12.50;99.90;;;;;;4973381;28;20026;-78
2023/02/19 13:50:28;;;;;;;2.65;1.40;;;12.40;99.90;;;;;;4985867;28;20788;-79
2023/02/19 13:52:58;;;;;;;4.90;1.38;;;12.40;99.90;;;;;;4988388;28;20034;-78
2023/02/19 13:55:45;;;;;;;2.95;1.23;;;12.30;99.90;;;;;;4988465;28;20050;-79